Dades meteomassalio
Diari Summary for Noviembre 7, 2017 Units:  English    Metric   Both
« Previous Day
Next Day »
Diari Semanal Mensual Anual Personalitzat
  Maxima: Minima: Mijana:
Temperatura: TemperatureC °F 0.6 °F 8.7 °F
Rosada: DewpointC °F -10.8 °F -2 °F
Humitat: Humidity % 22 % 49 %
Velocitat del vent: WindSpeedKMH mph 0.0 mph 24.4 mph
Racha vent: WindSpeedGustKMH mph - -
Vent:- - SW
Pressio: PressurehPa in 1019.9 in -
Pluja: 0.0 in    
Historical Graphs
 
 
Tabular Data for Noviembre 7, 2017
Time Temperature Dew Point Pressure Wind Wind Speed Wind Gust Humidity Rainfall Rate (Hourly) solar Conditions
TemperatureC °F DewpointC °F PressurehPa in Calm     Humidity % HourlyPrecipMM in SolarRadiationWatts/m^2 W/m2 Conditions
00:04 6.7 °F 1.4 °F 1021.6 in SW 24.1 mph 24.1 mph 69 % 0.0 in 0.0 W/m2 CLR
00:09 6.7 °F 1.4 °F 1021.6 in WSW 31.5 mph 31.5 mph 69 % 0.0 in 0.0 W/m2 CLR
00:14 6.7 °F 1.4 °F 1021.6 in SW 31.5 mph 31.5 mph 69 % 0.0 in 0.0 W/m2 CLR
00:19 6.7 °F 1.4 °F 1021.6 in SW 29.6 mph 29.6 mph 69 % 0.0 in 0.0 W/m2 CLR
00:24 6.7 °F 1.4 °F 1021.6 in SSW 27.8 mph 27.8 mph 69 % 0.0 in 0.0 W/m2 CLR
00:29 6.7 °F 1.4 °F 1021.6 in WSW 31.5 mph 31.5 mph 69 % 0.0 in 0.0 W/m2 CLR
00:34 6.7 °F 1.6 °F 1021.6 in SSW 25.9 mph 25.9 mph 70 % 0.0 in 0.0 W/m2 CLR
00:39 6.7 °F 1.6 °F 1021.6 in SW 24.1 mph 24.1 mph 70 % 0.0 in 0.0 W/m2 CLR
00:44 6.7 °F 1.6 °F 1021.6 in SSW 27.8 mph 27.8 mph 70 % 0.0 in 0.0 W/m2 CLR
00:49 6.7 °F 1.8 °F 1021.6 in SSW 25.9 mph 25.9 mph 71 % 0.0 in 0.0 W/m2 CLR
00:54 6.7 °F 1.8 °F 1021.6 in SSW 31.5 mph 31.5 mph 71 % 0.0 in 0.0 W/m2 CLR
00:59 6.1 °F 1.2 °F 1021.6 in SW 24.1 mph 24.1 mph 71 % 0.0 in 0.0 W/m2 CLR
01:04 6.7 °F 1.8 °F 1021.6 in SSW 27.8 mph 27.8 mph 71 % 0.0 in 0.0 W/m2 CLR
01:09 6.1 °F 1.2 °F 1021.6 in SSW 25.7 mph 25.7 mph 71 % 0.0 in 0.0 W/m2 CLR
01:14 6.1 °F 1.1 °F 1021.6 in SSW 25.7 mph 25.7 mph 70 % 0.0 in 0.0 W/m2 CLR
01:19 6.1 °F 1.1 °F 1021.6 in SW 31.5 mph 31.5 mph 70 % 0.0 in 0.0 W/m2 CLR
01:24 6.7 °F 1.6 °F 1021.6 in SSW 24.1 mph 24.1 mph 70 % 0.0 in 0.0 W/m2 CLR
01:29 6.1 °F 1.1 °F 1021.6 in WSW 18.5 mph 18.5 mph 70 % 0.0 in 0.0 W/m2 CLR
01:34 6.1 °F 1.1 °F 1021.6 in SSW 22.2 mph 22.2 mph 70 % 0.0 in 0.0 W/m2 CLR
01:39 6.1 °F 1.1 °F 1021.6 in SW 22.5 mph 22.5 mph 70 % 0.0 in 0.0 W/m2 CLR
01:44 6.1 °F 1.1 °F 1021.6 in SSW 18.5 mph 18.5 mph 70 % 0.0 in 0.0 W/m2 CLR
01:49 6.1 °F 0.8 °F 1021.6 in SW 20.4 mph 20.4 mph 69 % 0.0 in 0.0 W/m2 CLR
01:54 6.1 °F 0.8 °F 1021.6 in SW 25.9 mph 25.9 mph 69 % 0.0 in 0.0 W/m2 CLR
01:59 5.6 °F 0.3 °F 1021.6 in SSW 18.5 mph 18.5 mph 69 % 0.0 in 0.0 W/m2 CLR
02:04 5.6 °F 0.3 °F 1021.6 in SSW 20.4 mph 20.4 mph 69 % 0.0 in 0.0 W/m2 CLR
02:14 6.1 °F 0.8 °F 1021.6 in WSW 16.7 mph 16.7 mph 69 % 0.0 in 0.0 W/m2 CLR
02:19 6.1 °F 0.8 °F 1021.6 in SSW 20.4 mph 20.4 mph 69 % 0.0 in 0.0 W/m2 CLR
02:24 6.1 °F 0.8 °F 1021.6 in SSW 18.5 mph 18.5 mph 69 % 0.0 in 0.0 W/m2 CLR
02:29 6.1 °F 0.7 °F 1021.6 in SSW 22.2 mph 22.2 mph 68 % 0.0 in 0.0 W/m2 CLR
02:34 5.6 °F 0.1 °F 1021.6 in SSW 25.9 mph 25.9 mph 68 % 0.0 in 0.0 W/m2 CLR
02:39 5.6 °F -0.1 °F 1021.6 in SSW 24.1 mph 24.1 mph 67 % 0.0 in 0.0 W/m2 CLR
02:44 5.6 °F -0.1 °F 1021.6 in SSW 29.6 mph 29.6 mph 67 % 0.0 in 0.0 W/m2 CLR
02:49 5.6 °F -0.3 °F 1021.9 in SW 24.1 mph 24.1 mph 66 % 0.0 in 0.0 W/m2 CLR
02:54 5.6 °F -0.3 °F 1021.6 in SW 20.9 mph 20.9 mph 66 % 0.0 in 0.0 W/m2 CLR
02:59 5.6 °F -0.3 °F 1021.9 in SW 22.5 mph 22.5 mph 66 % 0.0 in 0.0 W/m2 CLR
03:04 5.6 °F -0.3 °F 1021.6 in South 22.5 mph 22.5 mph 66 % 0.0 in 0.0 W/m2 CLR
03:09 5.6 °F -0.5 °F 1021.6 in SW 22.2 mph 22.2 mph 65 % 0.0 in 0.0 W/m2 CLR
03:14 5.6 °F -0.5 °F 1021.6 in SSW 22.2 mph 22.2 mph 65 % 0.0 in 0.0 W/m2 CLR
03:19 5.6 °F -0.5 °F 1021.6 in SSW 27.8 mph 27.8 mph 65 % 0.0 in 0.0 W/m2 CLR
03:24 5.6 °F -0.5 °F 1021.6 in South 22.2 mph 22.2 mph 65 % 0.0 in 0.0 W/m2 CLR
03:29 5.6 °F -0.5 °F 1021.6 in SW 29.6 mph 29.6 mph 65 % 0.0 in 0.0 W/m2 CLR
03:34 5.6 °F -0.7 °F 1021.6 in SSW 18.5 mph 18.5 mph 64 % 0.0 in 0.0 W/m2 CLR
03:39 5.6 °F -0.7 °F 1021.6 in SSW 22.2 mph 22.2 mph 64 % 0.0 in 0.0 W/m2 CLR
03:44 5.0 °F -1.3 °F 1021.6 in SSW 18.5 mph 18.5 mph 64 % 0.0 in 0.0 W/m2 CLR
03:49 5.0 °F -1.3 °F 1021.6 in SSW 16.7 mph 16.7 mph 64 % 0.0 in 0.0 W/m2 CLR
03:59 4.4 °F -1.8 °F 1021.6 in SSW 14.8 mph 14.8 mph 64 % 0.0 in 0.0 W/m2 CLR
04:04 4.4 °F -1.8 °F 1021.6 in SSW 14.8 mph 14.8 mph 64 % 0.0 in 0.0 W/m2 CLR
04:09 3.9 °F -2.3 °F 1021.6 in South 18.5 mph 18.5 mph 64 % 0.0 in 0.0 W/m2 CLR
04:14 3.9 °F -2.1 °F 1021.6 in South 18.5 mph 18.5 mph 65 % 0.0 in 0.0 W/m2 CLR
04:19 3.9 °F -2.1 °F 1021.6 in South 11.1 mph 11.1 mph 65 % 0.0 in 0.0 W/m2 CLR
04:20 3.9 °F -2.1 °F 1021.6 in SSW 11.3 mph 11.3 mph 65 % 0.0 in 0.0 W/m2 CLR
04:25 3.3 °F -2.4 °F 1021.6 in South 7.4 mph 7.4 mph 66 % 0.0 in 0.0 W/m2 CLR
04:30 2.8 °F -2.6 °F 1021.6 in South 12.9 mph 12.9 mph 68 % 0.0 in 0.0 W/m2 CLR
04:35 2.8 °F -2.6 °F 1021.6 in SSE 14.8 mph 14.8 mph 68 % 0.0 in 0.0 W/m2 CLR
04:40 2.8 °F -2.3 °F 1021.6 in South 11.1 mph 11.1 mph 69 % 0.0 in 0.0 W/m2 CLR
04:45 3.3 °F -1.6 °F 1021.2 in SSW 18.5 mph 18.5 mph 70 % 0.0 in 0.0 W/m2 CLR
04:46 3.3 °F -1.6 °F 1021.2 in SSW 18.5 mph 18.5 mph 70 % 0.0 in 0.0 W/m2 CLR
04:51 2.8 °F -2.2 °F 1021.2 in South 14.8 mph 14.8 mph 70 % 0.0 in 0.0 W/m2 CLR
04:56 3.3 °F -1.8 °F 1021.6 in South 16.7 mph 16.7 mph 69 % 0.0 in 0.0 W/m2 CLR
05:01 3.3 °F -1.8 °F 1021.2 in SSE 19.3 mph 19.3 mph 69 % 0.0 in 0.0 W/m2 CLR
05:06 3.3 °F -2.0 °F 1021.6 in South 16.1 mph 16.1 mph 68 % 0.0 in 0.0 W/m2 CLR
05:11 3.9 °F -1.7 °F 1021.6 in South 14.8 mph 14.8 mph 67 % 0.0 in 0.0 W/m2 CLR
05:16 3.9 °F -1.9 °F 1021.6 in South 16.7 mph 16.7 mph 66 % 0.0 in 0.0 W/m2 CLR
05:21 3.9 °F -1.9 °F 1021.6 in SSE 16.7 mph 16.7 mph 66 % 0.0 in 0.0 W/m2 CLR
05:26 3.3 °F -2.4 °F 1021.6 in South 9.7 mph 9.7 mph 66 % 0.0 in 0.0 W/m2 CLR
05:31 3.3 °F -2.2 °F 1021.6 in South 18.5 mph 18.5 mph 67 % 0.0 in 0.0 W/m2 CLR
05:36 3.3 °F -2.8 °F 1021.6 in South 16.7 mph 16.7 mph 64 % 0.0 in 0.0 W/m2 CLR
05:41 3.3 °F -2.8 °F 1021.6 in South 11.1 mph 11.1 mph 64 % 0.0 in 0.0 W/m2 CLR
05:46 2.8 °F -3.6 °F 1021.6 in SSE 9.3 mph 9.3 mph 63 % 0.0 in 0.0 W/m2 CLR
05:51 2.2 °F -3.9 °F 1021.6 in Calm     64 % 0.0 in 0.0 W/m2 CLR
05:56 2.2 °F -3.9 °F 1021.6 in SW 11.1 mph 11.1 mph 64 % 0.0 in 0.0 W/m2 CLR
06:01 1.7 °F -4.6 °F 1021.6 in SSW 14.8 mph 14.8 mph 63 % 0.0 in 0.0 W/m2 CLR
06:06 1.1 °F -5.4 °F 1021.9 in SSW 16.7 mph 16.7 mph 62 % 0.0 in 0.0 W/m2 CLR
06:11 0.6 °F -5.9 °F 1021.9 in SSW 16.7 mph 16.7 mph 62 % 0.0 in 0.0 W/m2 CLR
06:21 0.6 °F -5.7 °F 1021.6 in South 18.5 mph 18.5 mph 63 % 0.0 in 0.0 W/m2 CLR
06:26 1.1 °F -5.2 °F 1021.6 in SSW 18.5 mph 18.5 mph 63 % 0.0 in 0.0 W/m2 CLR
06:31 1.7 °F -4.6 °F 1021.6 in SSW 16.7 mph 16.7 mph 63 % 0.0 in 0.0 W/m2 CLR
06:36 2.2 °F -4.1 °F 1021.9 in South 16.7 mph 16.7 mph 63 % 0.0 in 0.0 W/m2 CLR
06:41 2.8 °F -3.6 °F 1021.9 in SSW 16.7 mph 16.7 mph 63 % 0.0 in 0.0 W/m2 CLR
06:46 2.8 °F -3.6 °F 1021.9 in South 20.4 mph 20.4 mph 63 % 0.0 in 0.0 W/m2 CLR
06:51 2.8 °F -3.6 °F 1021.6 in South 18.5 mph 18.5 mph 63 % 0.0 in 0.0 W/m2 CLR
06:56 3.3 °F -3.1 °F 1021.9 in SSW 16.1 mph 16.1 mph 63 % 0.0 in 0.0 W/m2 CLR
07:06 3.3 °F -3.3 °F 1021.9 in SSE 14.8 mph 14.8 mph 62 % 0.0 in 0.0 W/m2 CLR
07:11 2.8 °F -3.8 °F 1021.9 in South 11.1 mph 11.1 mph 62 % 0.0 in 0.0 W/m2 CLR
07:16 3.3 °F -3.3 °F 1021.9 in SSE 14.8 mph 14.8 mph 62 % 0.0 in 0.0 W/m2 CLR
07:21 3.3 °F -3.3 °F 1021.9 in South 16.7 mph 16.7 mph 62 % 0.0 in 0.0 W/m2 CLR
07:26 3.3 °F -3.3 °F 1021.9 in South 18.5 mph 18.5 mph 62 % 0.0 in 0.0 W/m2 CLR
07:31 2.8 °F -3.8 °F 1021.9 in South 25.9 mph 25.9 mph 62 % 0.0 in 0.0 W/m2 OVC
07:36 3.3 °F -3.5 °F 1021.9 in South 20.4 mph 20.4 mph 61 % 0.0 in 0.0 W/m2 OVC
07:41 3.9 °F -2.9 °F 1021.9 in South 18.5 mph 18.5 mph 61 % 0.0 in 5.0 W/m2 OVC
07:46 3.9 °F -3.2 °F 1021.9 in SSE 14.8 mph 14.8 mph 60 % 0.0 in 9.0 W/m2 OVC
07:51 3.9 °F -3.2 °F 1021.9 in South 11.1 mph 11.1 mph 60 % 0.0 in 11.0 W/m2 OVC
07:56 3.9 °F -3.2 °F 1022.2 in South 13.0 mph 13.0 mph 60 % 0.0 in 12.0 W/m2 OVC
08:01 3.9 °F -3.2 °F 1022.2 in South 11.1 mph 11.1 mph 60 % 0.0 in 14.0 W/m2 OVC
08:06 3.9 °F -3.4 °F 1022.2 in SSE 7.4 mph 7.4 mph 59 % 0.0 in 18.0 W/m2 OVC
08:11 4.4 °F -2.9 °F 1022.2 in South 19.3 mph 19.3 mph 59 % 0.0 in 26.0 W/m2 OVC
08:16 4.4 °F -3.1 °F 1022.2 in SSE 18.5 mph 18.5 mph 58 % 0.0 in 40.0 W/m2 OVC
08:21 4.4 °F -3.1 °F 1022.6 in SSW 11.1 mph 11.1 mph 58 % 0.0 in 51.0 W/m2 OVC
08:26 3.9 °F -3.9 °F 1022.6 in South 18.5 mph 18.5 mph 57 % 0.0 in 63.0 W/m2 OVC
08:31 4.4 °F -3.3 °F 1022.6 in SSE 9.3 mph 9.3 mph 57 % 0.0 in 76.0 W/m2 OVC
08:36 4.4 °F -3.3 °F 1022.6 in South 13.0 mph 13.0 mph 57 % 0.0 in 84.0 W/m2 OVC
08:41 4.4 °F -3.3 °F 1022.6 in SSW 13.0 mph 13.0 mph 57 % 0.0 in 100.0 W/m2 BKN
08:46 5.0 °F -3.1 °F 1022.6 in SSW 16.7 mph 16.7 mph 56 % 0.0 in 90.0 W/m2 FEW
08:51 5.0 °F -3.3 °F 1022.6 in South 24.1 mph 24.1 mph 55 % 0.0 in 107.0 W/m2 CLR
08:56 5.0 °F -3.3 °F 1022.6 in South 20.4 mph 20.4 mph 55 % 0.0 in 121.0 W/m2 CLR
09:01 5.6 °F -2.8 °F 1022.6 in SSW 16.7 mph 16.7 mph 55 % 0.0 in 146.0 W/m2 CLR
09:02 5.6 °F -2.8 °F 1022.6 in SSW 16.7 mph 16.7 mph 55 % 0.0 in 146.0 W/m2 CLR
09:07 6.1 °F -2.3 °F 1022.6 in SSW 18.5 mph 18.5 mph 55 % 0.0 in 172.0 W/m2 CLR
09:12 6.1 °F -2.3 °F 1022.6 in South 18.5 mph 18.5 mph 55 % 0.0 in 95.0 W/m2 CLR
09:17 6.1 °F -2.3 °F 1022.6 in South 16.1 mph 16.1 mph 55 % 0.0 in 221.0 W/m2 CLR
09:22 6.7 °F -2.0 °F 1022.6 in SSW 27.4 mph 27.4 mph 54 % 0.0 in 246.0 W/m2 CLR
09:27 6.7 °F -2.0 °F 1022.6 in South 14.8 mph 14.8 mph 54 % 0.0 in 265.0 W/m2 CLR
09:32 6.7 °F -2.2 °F 1022.6 in SSW 29.6 mph 29.6 mph 53 % 0.0 in 294.0 W/m2 CLR
09:42 7.2 °F -1.7 °F 1022.6 in SW 27.8 mph 27.8 mph 53 % 0.0 in 364.0 W/m2 CLR
09:47 7.2 °F -2.3 °F 1022.6 in SSW 35.2 mph 35.2 mph 51 % 0.0 in 401.0 W/m2 CLR
09:52 7.8 °F -1.5 °F 1022.6 in SW 29.6 mph 29.6 mph 52 % 0.0 in 320.0 W/m2 CLR
09:57 7.8 °F -1.7 °F 1022.9 in SW 37.0 mph 37.0 mph 51 % 0.0 in 246.0 W/m2 CLR
10:02 7.8 °F -1.5 °F 1022.6 in South 24.1 mph 24.1 mph 52 % 0.0 in 227.0 W/m2 CLR
10:07 7.8 °F -1.7 °F 1022.6 in SW 29.6 mph 29.6 mph 51 % 0.0 in 269.0 W/m2 CLR
10:12 8.3 °F -1.5 °F 1022.6 in SSW 37.0 mph 37.0 mph 50 % 0.0 in 334.0 W/m2 CLR
10:17 8.3 °F -1.5 °F 1022.6 in SSW 25.9 mph 25.9 mph 50 % 0.0 in 251.0 W/m2 CLR
10:22 8.3 °F -1.2 °F 1022.6 in SSW 20.4 mph 20.4 mph 51 % 0.0 in 295.0 W/m2 CLR
10:27 8.3 °F -1.5 °F 1022.6 in WSW 18.5 mph 18.5 mph 50 % 0.0 in 343.0 W/m2 CLR
10:32 8.3 °F -2.1 °F 1022.9 in WSW 22.2 mph 22.2 mph 48 % 0.0 in 461.0 W/m2 CLR
10:37 8.9 °F -1.6 °F 1022.6 in SW 27.4 mph 27.4 mph 48 % 0.0 in 237.0 W/m2 CLR
10:42 8.9 °F -1.6 °F 1022.9 in SW 31.5 mph 31.5 mph 48 % 0.0 in 190.0 W/m2 CLR
10:47 8.9 °F -1.6 °F 1022.6 in SSW 20.4 mph 20.4 mph 48 % 0.0 in 236.0 W/m2 CLR
10:52 8.9 °F -1.8 °F 1022.9 in SSW 31.5 mph 31.5 mph 47 % 0.0 in 346.0 W/m2 CLR
10:57 8.9 °F -1.8 °F 1022.6 in South 31.5 mph 31.5 mph 47 % 0.0 in 459.0 W/m2 CLR
11:02 8.9 °F -1.8 °F 1022.6 in South 30.6 mph 30.6 mph 47 % 0.0 in 295.0 W/m2 CLR
11:07 9.4 °F -1.3 °F 1022.6 in South 22.5 mph 22.5 mph 47 % 0.0 in 439.0 W/m2 CLR
11:12 9.4 °F -1.6 °F 1022.6 in SW 20.4 mph 20.4 mph 46 % 0.0 in 496.0 W/m2 CLR
11:17 10.0 °F -1.7 °F 1022.6 in WSW 35.2 mph 35.2 mph 44 % 0.0 in 517.0 W/m2 CLR
11:22 10.6 °F -1.5 °F 1022.6 in SW 44.4 mph 44.4 mph 43 % 0.0 in 517.0 W/m2 CLR
11:27 10.6 °F -1.5 °F 1022.6 in SW 40.7 mph 40.7 mph 43 % 0.0 in 454.0 W/m2 CLR
11:32 10.6 °F -0.9 °F 1022.6 in SW 42.6 mph 42.6 mph 45 % 0.0 in 519.0 W/m2 CLR
11:37 10.6 °F -0.9 °F 1022.6 in SSW 35.2 mph 35.2 mph 45 % 0.0 in 552.0 W/m2 CLR
11:42 10.6 °F -0.6 °F 1022.6 in SSW 29.6 mph 29.6 mph 46 % 0.0 in 485.0 W/m2 CLR
11:47 10.6 °F -0.6 °F 1022.2 in SW 40.7 mph 40.7 mph 46 % 0.0 in 388.0 W/m2 CLR
11:52 10.6 °F -0.6 °F 1022.2 in SW 24.1 mph 24.1 mph 46 % 0.0 in 403.0 W/m2 CLR
11:57 11.1 °F -0.1 °F 1022.2 in South 31.5 mph 31.5 mph 46 % 0.0 in 527.0 W/m2 CLR
12:02 11.1 °F 0.2 °F 1022.2 in SW 18.5 mph 18.5 mph 47 % 0.0 in 540.0 W/m2 CLR
12:07 11.7 °F 0.1 °F 1022.2 in SSW 31.5 mph 31.5 mph 45 % 0.0 in 536.0 W/m2 CLR
12:12 11.7 °F 0.1 °F 1021.9 in SSW 29.6 mph 29.6 mph 45 % 0.0 in 536.0 W/m2 CLR
12:17 11.7 °F 0.1 °F 1021.9 in SW 33.3 mph 33.3 mph 45 % 0.0 in 543.0 W/m2 CLR
12:22 11.7 °F -0.2 °F 1021.9 in SW 35.2 mph 35.2 mph 44 % 0.0 in 545.0 W/m2 CLR
12:27 12.2 °F 0.0 °F 1021.6 in SW 29.0 mph 29.0 mph 43 % 0.0 in 547.0 W/m2 CLR
12:32 12.2 °F 0.3 °F 1021.6 in WSW 41.8 mph 41.8 mph 44 % 0.0 in 548.0 W/m2 CLR
12:37 12.2 °F 0.3 °F 1021.6 in WSW 33.3 mph 33.3 mph 44 % 0.0 in 548.0 W/m2 CLR
12:42 12.8 °F 0.8 °F 1021.6 in WSW 33.3 mph 33.3 mph 44 % 0.0 in 550.0 W/m2 CLR
12:47 12.8 °F 0.8 °F 1021.2 in SW 24.1 mph 24.1 mph 44 % 0.0 in 550.0 W/m2 CLR
12:52 13.3 °F 1.3 °F 1021.2 in SSW 22.2 mph 22.2 mph 44 % 0.0 in 548.0 W/m2 CLR
12:57 13.3 °F 0.7 °F 1021.2 in WSW 31.5 mph 31.5 mph 42 % 0.0 in 548.0 W/m2 CLR
13:07 13.3 °F -0.3 °F 1020.9 in SW 33.3 mph 33.3 mph 39 % 0.0 in 547.0 W/m2 CLR
13:12 13.9 °F -0.2 °F 1020.9 in WSW 27.8 mph 27.8 mph 38 % 0.0 in 543.0 W/m2 CLR
13:17 13.9 °F -0.2 °F 1020.9 in SW 24.1 mph 24.1 mph 38 % 0.0 in 541.0 W/m2 CLR
13:22 14.4 °F -0.4 °F 1020.9 in West 40.2 mph 40.2 mph 36 % 0.0 in 541.0 W/m2 CLR
13:27 14.4 °F -0.4 °F 1020.9 in SSW 25.9 mph 25.9 mph 36 % 0.0 in 534.0 W/m2 CLR
13:32 14.4 °F -1.2 °F 1020.5 in SW 31.5 mph 31.5 mph 34 % 0.0 in 531.0 W/m2 CLR
13:37 14.4 °F -0.8 °F 1020.5 in SW 33.3 mph 33.3 mph 35 % 0.0 in 529.0 W/m2 CLR
13:42 14.4 °F -0.4 °F 1020.5 in SSW 27.8 mph 27.8 mph 36 % 0.0 in 526.0 W/m2 CLR
13:47 14.4 °F -0.4 °F 1020.5 in SW 24.1 mph 24.1 mph 36 % 0.0 in 520.0 W/m2 CLR
13:52 15.0 °F -0.3 °F 1020.2 in SSW 29.6 mph 29.6 mph 35 % 0.0 in 515.0 W/m2 CLR
13:57 14.4 °F -0.8 °F 1020.2 in SSW 25.9 mph 25.9 mph 35 % 0.0 in 508.0 W/m2 CLR
14:02 15.0 °F -0.8 °F 1020.5 in SW 42.6 mph 42.6 mph 34 % 0.0 in 504.0 W/m2 CLR
14:07 15.0 °F -0.8 °F 1020.2 in SW 27.8 mph 27.8 mph 34 % 0.0 in 499.0 W/m2 CLR
14:12 15.0 °F -1.2 °F 1020.2 in WSW 32.2 mph 32.2 mph 33 % 0.0 in 490.0 W/m2 CLR
14:17 15.0 °F -1.6 °F 1020.2 in SSW 29.6 mph 29.6 mph 32 % 0.0 in 485.0 W/m2 CLR
14:18 15.0 °F -1.6 °F 1020.2 in WSW 31.5 mph 31.5 mph 32 % 0.0 in 483.0 W/m2 CLR
14:23 15.6 °F -2.4 °F 1020.2 in SSW 38.9 mph 38.9 mph 29 % 0.0 in 475.0 W/m2 CLR
14:28 15.6 °F -2.9 °F 1020.2 in SW 25.9 mph 25.9 mph 28 % 0.0 in 468.0 W/m2 CLR
14:33 15.6 °F -2.4 °F 1020.2 in WSW 25.7 mph 25.7 mph 29 % 0.0 in 461.0 W/m2 CLR
14:38 15.6 °F -3.4 °F 1020.2 in SSW 24.1 mph 24.1 mph 27 % 0.0 in 452.0 W/m2 CLR
14:43 15.6 °F -2.9 °F 1019.9 in WSW 31.5 mph 31.5 mph 28 % 0.0 in 443.0 W/m2 CLR
14:48 15.6 °F -2.9 °F 1019.9 in SW 31.5 mph 31.5 mph 28 % 0.0 in 434.0 W/m2 CLR
14:50 15.6 °F -3.4 °F 1019.9 in SW 27.8 mph 27.8 mph 27 % 0.0 in 427.0 W/m2 CLR
14:55 15.6 °F -3.4 °F 1019.9 in SW 33.3 mph 33.3 mph 27 % 0.0 in 420.0 W/m2 CLR
15:00 15.0 °F -3.9 °F 1019.9 in SW 27.8 mph 27.8 mph 27 % 0.0 in 410.0 W/m2 CLR
15:05 15.6 °F -3.9 °F 1019.9 in WSW 27.8 mph 27.8 mph 26 % 0.0 in 401.0 W/m2 CLR
15:15 15.6 °F -4.4 °F 1019.9 in SW 35.2 mph 35.2 mph 25 % 0.0 in 380.0 W/m2 CLR
15:20 15.6 °F -4.9 °F 1019.9 in SSW 29.6 mph 29.6 mph 24 % 0.0 in 369.0 W/m2 CLR
15:25 15.6 °F -4.9 °F 1019.9 in SW 24.1 mph 24.1 mph 24 % 0.0 in 359.0 W/m2 CLR
15:30 15.6 °F -4.9 °F 1019.9 in West 27.8 mph 27.8 mph 24 % 0.0 in 346.0 W/m2 CLR
15:35 15.6 °F -4.9 °F 1019.9 in West 40.2 mph 40.2 mph 24 % 0.0 in 338.0 W/m2 CLR
15:40 15.6 °F -5.6 °F 1019.9 in SSW 31.5 mph 31.5 mph 23 % 0.0 in 320.0 W/m2 CLR
15:45 15.6 °F -5.6 °F 1019.9 in WSW 25.9 mph 25.9 mph 23 % 0.0 in 309.0 W/m2 CLR
15:50 15.6 °F -5.6 °F 1019.9 in SW 33.3 mph 33.3 mph 23 % 0.0 in 297.0 W/m2 CLR
15:55 15.6 °F -6.1 °F 1019.9 in SSW 24.1 mph 24.1 mph 22 % 0.0 in 283.0 W/m2 CLR
16:00 15.6 °F -6.1 °F 1019.9 in SW 18.5 mph 18.5 mph 22 % 0.0 in 267.0 W/m2 CLR
16:05 15.0 °F -6.0 °F 1019.9 in SW 18.5 mph 18.5 mph 23 % 0.0 in 251.0 W/m2 CLR
16:10 15.0 °F -4.4 °F 1019.9 in SW 19.3 mph 19.3 mph 26 % 0.0 in 239.0 W/m2 CLR
16:15 15.0 °F -4.4 °F 1019.9 in SW 20.4 mph 20.4 mph 26 % 0.0 in 221.0 W/m2 CLR
16:20 15.0 °F -4.9 °F 1019.9 in WSW 20.9 mph 20.9 mph 25 % 0.0 in 206.0 W/m2 CLR
16:25 14.4 °F -4.3 °F 1019.9 in WSW 22.2 mph 22.2 mph 27 % 0.0 in 186.0 W/m2 CLR
16:30 14.4 °F -4.3 °F 1019.9 in West 20.4 mph 20.4 mph 27 % 0.0 in 167.0 W/m2 CLR
16:35 13.9 °F -4.8 °F 1019.9 in WSW 27.8 mph 27.8 mph 27 % 0.0 in 151.0 W/m2 CLR
16:40 13.9 °F -4.3 °F 1019.9 in WSW 22.2 mph 22.2 mph 28 % 0.0 in 132.0 W/m2 CLR
16:45 13.9 °F -4.3 °F 1019.9 in WSW 22.2 mph 22.2 mph 28 % 0.0 in 116.0 W/m2 CLR
16:50 13.9 °F -4.3 °F 1019.9 in WSW 24.1 mph 24.1 mph 28 % 0.0 in 102.0 W/m2 CLR
16:55 13.3 °F -4.8 °F 1019.9 in WSW 24.1 mph 24.1 mph 28 % 0.0 in 76.0 W/m2 FEW
17:00 13.3 °F -4.8 °F 1019.9 in SW 29.6 mph 29.6 mph 28 % 0.0 in 56.0 W/m2 SCT
17:05 13.3 °F -4.3 °F 1019.9 in West 14.8 mph 14.8 mph 29 % 0.0 in 54.0 W/m2 SCT
17:10 12.8 °F -4.8 °F 1019.9 in SW 18.5 mph 18.5 mph 29 % 0.0 in 44.0 W/m2 BKN
17:15 12.8 °F -4.4 °F 1019.9 in WSW 16.7 mph 16.7 mph 30 % 0.0 in 33.0 W/m2 BKN
17:20 12.8 °F -4.8 °F 1019.9 in SW 17.7 mph 17.7 mph 29 % 0.0 in 21.0 W/m2 BKN
17:25 12.8 °F -4.4 °F 1019.9 in SW 14.8 mph 14.8 mph 30 % 0.0 in 16.0 W/m2 BKN
17:30 12.2 °F -4.9 °F 1019.9 in SW 5.6 mph 5.6 mph 30 % 0.0 in 12.0 W/m2 BKN
17:35 11.7 °F -4.9 °F 1019.9 in Calm     31 % 0.0 in 11.0 W/m2 BKN
17:40 10.6 °F -5.9 °F 1019.9 in Calm     31 % 0.0 in 9.0 W/m2 BKN
17:45 9.4 °F -6.9 °F 1019.9 in Calm     31 % 0.0 in 7.0 W/m2 BKN
17:50 8.9 °F -6.9 °F 1019.9 in Calm     32 % 0.0 in 0.0 W/m2 OVC
17:55 8.3 °F -7.1 °F 1019.9 in Calm     33 % 0.0 in 0.0 W/m2 OVC
18:00 7.8 °F -7.1 °F 1020.2 in SSW 13.0 mph 13.0 mph 34 % 0.0 in 0.0 W/m2 CLR
18:05 7.2 °F -8.0 °F 1020.2 in SSW 9.7 mph 9.7 mph 33 % 0.0 in 0.0 W/m2 CLR
18:10 6.7 °F -8.5 °F 1020.2 in South 7.4 mph 7.4 mph 33 % 0.0 in 0.0 W/m2 CLR
18:15 6.7 °F -8.5 °F 1020.2 in South 11.1 mph 11.1 mph 33 % 0.0 in 0.0 W/m2 CLR
18:20 6.1 °F -9.0 °F 1020.5 in South 11.3 mph 11.3 mph 33 % 0.0 in 0.0 W/m2 CLR
18:25 6.1 °F -9.0 °F 1020.5 in South 11.1 mph 11.1 mph 33 % 0.0 in 0.0 W/m2 CLR
18:30 5.6 °F -9.5 °F 1020.5 in South 9.3 mph 9.3 mph 33 % 0.0 in 0.0 W/m2 CLR
18:35 5.6 °F -9.5 °F 1020.5 in South 11.3 mph 11.3 mph 33 % 0.0 in 0.0 W/m2 CLR
18:40 5.6 °F -9.5 °F 1020.5 in South 11.1 mph 11.1 mph 33 % 0.0 in 0.0 W/m2 CLR
18:45 5.0 °F -9.9 °F 1020.5 in SSW 7.4 mph 7.4 mph 33 % 0.0 in 0.0 W/m2 CLR
18:50 5.0 °F -9.9 °F 1020.5 in SSW 14.8 mph 14.8 mph 33 % 0.0 in 0.0 W/m2 CLR
18:55 4.4 °F -10.4 °F 1020.5 in South 14.8 mph 14.8 mph 33 % 0.0 in 0.0 W/m2 CLR
19:00 4.4 °F -10.8 °F 1020.9 in South 24.1 mph 24.1 mph 32 % 0.0 in 0.0 W/m2 CLR
19:05 5.6 °F -10.3 °F 1020.9 in SSW 20.9 mph 20.9 mph 31 % 0.0 in 0.0 W/m2 CLR
19:10 6.7 °F -9.3 °F 1020.9 in SSW 22.2 mph 22.2 mph 31 % 0.0 in 0.0 W/m2 CLR
19:16 9.4 °F -6.4 °F 1020.9 in SW 24.1 mph 24.1 mph 32 % 0.0 in 0.0 W/m2 CLR
19:21 10.6 °F -4.7 °F 1020.9 in SW 27.8 mph 27.8 mph 34 % 0.0 in 0.0 W/m2 CLR
19:25 11.1 °F -4.2 °F 1020.9 in SSW 25.9 mph 25.9 mph 34 % 0.0 in 0.0 W/m2 CLR
19:31 11.1 °F -3.8 °F 1020.9 in SW 24.1 mph 24.1 mph 35 % 0.0 in 0.0 W/m2 CLR
19:35 11.1 °F -3.8 °F 1020.9 in SW 22.2 mph 22.2 mph 35 % 0.0 in 0.0 W/m2 CLR
19:40 11.1 °F -3.4 °F 1020.9 in SSW 27.8 mph 27.8 mph 36 % 0.0 in 0.0 W/m2 CLR
19:46 11.1 °F -3.1 °F 1020.9 in SW 20.4 mph 20.4 mph 37 % 0.0 in 0.0 W/m2 CLR
19:51 11.1 °F -2.3 °F 1020.5 in NW 29.6 mph 29.6 mph 39 % 0.0 in 0.0 W/m2 CLR
19:56 11.7 °F -1.5 °F 1020.5 in NW 27.8 mph 27.8 mph 40 % 0.0 in 0.0 W/m2 CLR
20:01 11.1 °F -1.3 °F 1020.9 in NW 27.8 mph 27.8 mph 42 % 0.0 in 0.0 W/m2 CLR
20:06 11.1 °F -1.0 °F 1020.9 in NNW 22.2 mph 22.2 mph 43 % 0.0 in 0.0 W/m2 CLR
20:11 11.1 °F -0.7 °F 1020.9 in NW 24.1 mph 24.1 mph 44 % 0.0 in 0.0 W/m2 CLR
20:16 11.1 °F -0.4 °F 1020.9 in NNW 27.8 mph 27.8 mph 45 % 0.0 in 0.0 W/m2 CLR
20:21 11.1 °F -0.4 °F 1020.9 in NW 31.5 mph 31.5 mph 45 % 0.0 in 0.0 W/m2 CLR
20:26 11.1 °F -0.1 °F 1020.9 in NW 22.2 mph 22.2 mph 46 % 0.0 in 0.0 W/m2 CLR
20:31 11.1 °F -0.1 °F 1021.2 in NNW 29.6 mph 29.6 mph 46 % 0.0 in 0.0 W/m2 CLR
20:36 11.1 °F -0.1 °F 1021.2 in NW 35.2 mph 35.2 mph 46 % 0.0 in 0.0 W/m2 CLR
20:41 11.7 °F 0.4 °F 1021.2 in NNW 37.0 mph 37.0 mph 46 % 0.0 in 0.0 W/m2 CLR
20:46 11.7 °F 0.4 °F 1021.2 in NNW 37.0 mph 37.0 mph 46 % 0.0 in 0.0 W/m2 CLR
20:51 12.2 °F 0.9 °F 1021.2 in North 35.2 mph 35.2 mph 46 % 0.0 in 0.0 W/m2 CLR
20:56 11.7 °F 0.1 °F 1021.6 in NNW 25.9 mph 25.9 mph 45 % 0.0 in 0.0 W/m2 CLR
21:01 11.7 °F 0.1 °F 1021.2 in North 32.2 mph 32.2 mph 45 % 0.0 in 0.0 W/m2 CLR
21:06 11.7 °F 0.1 °F 1021.6 in NW 31.5 mph 31.5 mph 45 % 0.0 in 0.0 W/m2 CLR
21:11 11.7 °F 0.1 °F 1021.6 in North 27.8 mph 27.8 mph 45 % 0.0 in 0.0 W/m2 CLR
21:16 12.2 °F 0.6 °F 1021.6 in NNW 46.3 mph 46.3 mph 45 % 0.0 in 0.0 W/m2 CLR
21:21 12.2 °F 0.6 °F 1021.6 in NNW 37.0 mph 37.0 mph 45 % 0.0 in 0.0 W/m2 CLR
21:26 11.7 °F -0.2 °F 1021.6 in NNW 42.6 mph 42.6 mph 44 % 0.0 in 0.0 W/m2 CLR
21:31 11.7 °F -0.2 °F 1021.6 in NNW 40.7 mph 40.7 mph 44 % 0.0 in 0.0 W/m2 CLR
21:36 11.7 °F 0.1 °F 1021.2 in NNW 37.0 mph 37.0 mph 45 % 0.0 in 0.0 W/m2 CLR
21:41 11.7 °F 0.1 °F 1021.2 in NW 37.0 mph 37.0 mph 45 % 0.0 in 0.0 W/m2 CLR
21:46 11.7 °F 0.4 °F 1021.2 in NNW 35.2 mph 35.2 mph 46 % 0.0 in 0.0 W/m2 CLR
21:51 11.7 °F 0.7 °F 1021.6 in NW 48.1 mph 48.1 mph 47 % 0.0 in 0.0 W/m2 CLR
21:56 11.7 °F 1.0 °F 1021.6 in WNW 35.2 mph 35.2 mph 48 % 0.0 in 0.0 W/m2 CLR
22:01 11.1 °F 0.5 °F 1021.6 in NW 44.4 mph 44.4 mph 48 % 0.0 in 0.0 W/m2 CLR
22:06 11.1 °F 0.8 °F 1021.6 in North 35.2 mph 35.2 mph 49 % 0.0 in 0.0 W/m2 CLR
22:11 11.1 °F 0.5 °F 1021.6 in NNW 42.6 mph 42.6 mph 48 % 0.0 in 0.0 W/m2 CLR
22:16 11.1 °F 0.8 °F 1021.2 in NW 37.0 mph 37.0 mph 49 % 0.0 in 0.0 W/m2 CLR
22:21 11.1 °F 0.8 °F 1021.6 in NW 35.2 mph 35.2 mph 49 % 0.0 in 0.0 W/m2 CLR
22:26 11.1 °F 1.1 °F 1021.6 in NW 44.4 mph 44.4 mph 50 % 0.0 in 0.0 W/m2 CLR
22:31 11.1 °F 0.8 °F 1021.6 in NW 48.1 mph 48.1 mph 49 % 0.0 in 0.0 W/m2 CLR
22:32 11.1 °F 0.8 °F 1021.6 in NW 48.1 mph 48.1 mph 49 % 0.0 in 0.0 W/m2 CLR
22:37 11.1 °F 0.8 °F 1021.6 in NW 42.6 mph 42.6 mph 49 % 0.0 in 0.0 W/m2 CLR
22:42 11.1 °F 1.1 °F 1021.6 in NW 33.3 mph 33.3 mph 50 % 0.0 in 0.0 W/m2 CLR
22:47 11.1 °F 1.1 °F 1021.6 in NW 42.6 mph 42.6 mph 50 % 0.0 in 0.0 W/m2 CLR
22:52 11.1 °F 1.1 °F 1021.6 in NW 35.2 mph 35.2 mph 50 % 0.0 in 0.0 W/m2 CLR
22:57 11.1 °F 1.1 °F 1021.6 in NW 35.2 mph 35.2 mph 50 % 0.0 in 0.0 W/m2 CLR
23:02 11.1 °F 1.3 °F 1021.6 in NNW 40.7 mph 40.7 mph 51 % 0.0 in 0.0 W/m2 CLR
23:07 11.1 °F 1.3 °F 1021.6 in NW 35.2 mph 35.2 mph 51 % 0.0 in 0.0 W/m2 CLR
23:12 11.1 °F 1.6 °F 1021.6 in NW 31.5 mph 31.5 mph 52 % 0.0 in 0.0 W/m2 CLR
23:17 11.1 °F 1.9 °F 1021.6 in NNW 35.2 mph 35.2 mph 53 % 0.0 in 0.0 W/m2 CLR
23:22 11.1 °F 2.2 °F 1021.6 in NW 35.4 mph 35.4 mph 54 % 0.0 in 0.0 W/m2 CLR
23:27 10.6 °F 1.9 °F 1021.6 in NW 31.5 mph 31.5 mph 55 % 0.0 in 0.0 W/m2 CLR
23:32 10.6 °F 1.9 °F 1021.9 in NW 31.5 mph 31.5 mph 55 % 0.0 in 0.0 W/m2 CLR
23:37 10.6 °F 1.9 °F 1021.6 in NNW 41.8 mph 41.8 mph 55 % 0.0 in 0.0 W/m2 CLR
23:42 10.6 °F 2.1 °F 1021.9 in NW 32.2 mph 32.2 mph 56 % 0.0 in 0.0 W/m2 CLR
23:47 10.6 °F 2.4 °F 1021.6 in North 37.0 mph 37.0 mph 57 % 0.0 in 0.0 W/m2 CLR
23:52 10.6 °F 2.4 °F 1021.6 in NW 29.6 mph 29.6 mph 57 % 0.0 in 0.0 W/m2 CLR
23:57 10.6 °F 2.4 °F 1021.6 in NNW 29.6 mph 29.6 mph 57 % 0.0 in 0.0 W/m2 CLR
Lo Temps de Massalio
Compliments of Weather Underground - 1.25 mb